createdAt,value
2022-10-10T07:15:14.611Z,22.17
2022-10-10T07:20:09.195Z,18.43
2022-10-10T07:42:33.298Z,23.27
2022-10-10T07:47:27.108Z,21.27
2022-10-10T07:52:20.686Z,20.77
2022-10-10T07:57:14.822Z,21.07
2022-10-10T08:02:10.993Z,22.07
2022-10-10T08:07:04.625Z,17.07
2022-10-10T08:11:58.439Z,14.80
2022-10-10T08:16:52.140Z,12.97
2022-10-10T08:21:47.475Z,12.40
2022-10-10T08:26:41.358Z,12.60
2022-10-10T08:31:35.039Z,11.27
2022-10-10T08:36:28.979Z,15.97
2022-10-10T08:41:34.623Z,11.80
2022-10-10T08:46:36.568Z,7.60
2022-10-10T08:51:33.961Z,7.27
2022-10-10T08:56:33.488Z,9.87
2022-10-10T09:01:32.849Z,9.77
2022-10-10T09:06:39.009Z,9.07
2022-10-10T09:11:45.235Z,9.70
2022-10-10T09:16:45.855Z,11.63
2022-10-10T09:21:42.830Z,12.10
2022-10-10T09:26:42.021Z,10.40
2022-10-10T09:31:40.643Z,10.13
2022-10-10T09:36:38.552Z,10.63
2022-10-10T09:41:37.014Z,13.50
2022-10-10T09:46:32.508Z,11.80
2022-10-10T09:51:26.162Z,10.18
2022-10-10T09:56:23.282Z,12.02
2022-10-10T10:01:22.762Z,9.23
2022-10-10T10:06:18.455Z,10.63
2022-10-10T10:11:30.158Z,9.50
2022-10-10T10:16:32.817Z,10.55
2022-10-10T10:21:28.766Z,12.27
2022-10-10T10:26:25.034Z,8.75
2022-10-10T10:31:42.576Z,10.13
2022-10-10T10:36:49.755Z,10.20
2022-10-10T10:41:52.362Z,9.38
2022-10-10T10:46:54.055Z,8.50
2022-10-10T10:52:10.147Z,6.80
2022-10-10T10:57:11.198Z,12.40
2022-10-10T11:02:56.001Z,9.65
2022-10-10T11:08:00.024Z,8.25
2022-10-10T11:13:04.500Z,6.03
2022-10-10T11:18:02.439Z,11.95
2022-10-10T11:23:07.990Z,7.45
2022-10-10T11:28:10.059Z,7.20
2022-10-10T11:33:12.067Z,11.43
2022-10-10T11:38:16.813Z,9.18
2022-10-10T11:43:20.390Z,7.25
2022-10-10T11:48:28.452Z,6.97
2022-10-10T11:53:31.865Z,8.45
2022-10-10T11:58:39.485Z,5.88
2022-10-10T12:03:33.701Z,5.75
2022-10-10T12:08:35.969Z,6.80
2022-10-10T12:13:33.659Z,9.45
2022-10-10T12:18:31.176Z,7.30
2022-10-10T12:23:31.077Z,6.80
2022-10-10T12:28:29.555Z,5.28
2022-10-10T12:33:44.201Z,7.63
2022-10-10T12:38:39.594Z,8.75
2022-10-10T12:43:41.254Z,5.72
2022-10-10T12:48:35.104Z,6.97
2022-10-10T12:53:30.910Z,11.27
2022-10-10T12:58:36.533Z,7.50
2022-10-10T13:03:36.007Z,11.10
2022-10-10T13:08:31.611Z,5.97
2022-10-10T13:13:25.407Z,6.35
2022-10-10T13:18:34.652Z,7.47
2022-10-10T13:23:28.892Z,7.57
2022-10-10T13:28:24.518Z,9.38
2022-10-10T13:33:20.479Z,5.95
2022-10-10T13:38:19.015Z,7.43
2022-10-10T13:43:15.470Z,6.57
2022-10-10T13:48:22.632Z,9.55
2022-10-10T13:53:44.752Z,7.68
2022-10-10T13:58:46.364Z,7.65
2022-10-10T14:03:39.997Z,5.60
2022-10-10T14:08:36.882Z,7.63
2022-10-10T14:13:32.195Z,6.60
2022-10-10T14:18:27.294Z,8.73
2022-10-10T14:23:21.207Z,8.95
2022-10-10T14:28:18.682Z,9.43
2022-10-10T14:33:15.088Z,7.75
2022-10-10T14:38:09.206Z,9.00
2022-10-10T14:43:03.266Z,7.95
2022-10-10T14:47:58.883Z,13.05
2022-10-10T14:52:52.442Z,9.05
2022-10-10T14:57:46.025Z,9.82
2022-10-10T15:02:44.581Z,7.97
2022-10-10T15:07:40.918Z,8.57
2022-10-10T15:12:36.188Z,7.55
2022-10-10T15:17:31.322Z,10.98
2022-10-10T15:22:25.338Z,12.55
2022-10-10T15:27:20.593Z,13.73
2022-10-10T15:32:14.747Z,17.85
2022-10-10T15:37:10.708Z,12.02
2022-10-10T15:42:12.694Z,11.60
2022-10-10T15:47:12.232Z,10.10
2022-10-10T15:52:06.233Z,9.35
2022-10-10T15:57:00.104Z,12.80
2022-10-10T16:01:55.635Z,10.90
2022-10-10T16:07:19.262Z,11.77
2022-10-10T16:12:08.722Z,11.82
2022-10-10T16:17:02.423Z,18.95
2022-10-10T16:21:57.841Z,25.23
2022-10-10T16:26:51.729Z,29.27
2022-10-10T16:31:45.428Z,22.83
2022-10-10T16:36:39.769Z,24.55
2022-10-10T16:41:47.441Z,21.08
2022-10-10T16:46:42.300Z,21.27
2022-10-10T16:51:35.950Z,20.45
2022-10-10T16:56:30.237Z,20.63
2022-10-10T17:01:25.629Z,16.50
2022-10-10T17:06:21.358Z,15.48
2022-10-10T17:11:15.805Z,14.73
2022-10-10T17:16:47.898Z,17.60
2022-10-10T17:21:27.470Z,15.98
2022-10-10T17:26:23.801Z,15.77
2022-10-10T17:31:17.994Z,11.77
2022-10-10T17:36:15.322Z,16.15
2022-10-10T17:41:13.707Z,17.52
2022-10-10T17:46:32.594Z,14.65
2022-10-10T17:51:23.977Z,15.02
2022-10-10T17:56:24.333Z,14.05
2022-10-10T18:01:19.719Z,14.63
2022-10-10T18:06:15.659Z,15.85
2022-10-10T18:11:14.231Z,16.88
2022-10-10T18:16:12.379Z,13.73
2022-10-10T18:21:08.058Z,17.85
2022-10-10T18:26:02.382Z,20.60
2022-10-10T18:30:55.918Z,25.23
2022-10-10T18:35:51.081Z,30.37
2022-10-10T18:40:44.758Z,25.07
2022-10-10T18:45:38.343Z,26.90
2022-10-10T18:50:32.190Z,23.23
2022-10-10T18:55:30.601Z,20.47
2022-10-10T19:00:26.008Z,22.00
2022-10-10T19:05:19.716Z,29.17
2022-10-10T19:10:13.483Z,31.10
2022-10-10T19:15:10.834Z,23.50
2022-10-10T19:20:05.544Z,28.00
2022-10-10T19:24:59.143Z,17.10
2022-10-10T19:29:52.786Z,21.30
2022-10-10T19:34:48.329Z,22.73
2022-10-10T19:39:42.036Z,20.63
2022-10-10T19:44:35.770Z,16.73
2022-10-10T19:49:29.546Z,16.10
2022-10-10T19:54:24.646Z,16.97
2022-10-10T19:59:18.241Z,18.20
2022-10-10T20:04:12.284Z,18.93
2022-10-10T20:09:10.606Z,17.30
